sensor_id;sensor_type;location;lat;lon;timestamp;temperature;humidity
31695;DHT22;18289;51.330;4.946;2022-09-27T00:00:33;10.70;99.90
31695;DHT22;18289;51.330;4.946;2022-09-27T00:02:59;10.70;99.90
31695;DHT22;18289;51.330;4.946;2022-09-27T00:05:26;10.70;99.90
31695;DHT22;18289;51.330;4.946;2022-09-27T00:07:51;10.70;99.90
31695;DHT22;18289;51.330;4.946;2022-09-27T00:10:17;10.70;99.90
31695;DHT22;18289;51.330;4.946;2022-09-27T00:12:44;10.70;99.90
31695;DHT22;18289;51.330;4.946;2022-09-27T00:15:10;10.60;99.90
31695;DHT22;18289;51.330;4.946;2022-09-27T00:17:37;10.70;99.90
31695;DHT22;18289;51.330;4.946;2022-09-27T00:20:05;10.70;99.90
31695;DHT22;18289;51.330;4.946;2022-09-27T00:22:31;10.70;99.90
31695;DHT22;18289;51.330;4.946;2022-09-27T00:24:57;10.70;99.90
31695;DHT22;18289;51.330;4.946;2022-09-27T00:27:25;10.70;99.90
31695;DHT22;18289;51.330;4.946;2022-09-27T00:29:50;10.80;99.90
31695;DHT22;18289;51.330;4.946;2022-09-27T00:32:17;10.80;99.90
31695;DHT22;18289;51.330;4.946;2022-09-27T00:34:43;10.70;99.90
31695;DHT22;18289;51.330;4.946;2022-09-27T00:37:09;10.60;99.90
31695;DHT22;18289;51.330;4.946;2022-09-27T00:39:36;10.50;99.90
31695;DHT22;18289;51.330;4.946;2022-09-27T00:42:04;10.40;99.90
31695;DHT22;18289;51.330;4.946;2022-09-27T00:52:28;10.60;99.90
31695;DHT22;18289;51.330;4.946;2022-09-27T00:55:12;10.50;99.90
31695;DHT22;18289;51.330;4.946;2022-09-27T00:57:41;10.40;99.90
31695;DHT22;18289;51.330;4.946;2022-09-27T01:00:09;10.40;99.90
31695;DHT22;18289;51.330;4.946;2022-09-27T01:02:45;10.30;99.90
31695;DHT22;18289;51.330;4.946;2022-09-27T01:05:13;10.20;99.90
31695;DHT22;18289;51.330;4.946;2022-09-27T01:07:39;10.20;99.90
31695;DHT22;18289;51.330;4.946;2022-09-27T01:10:06;10.30;99.90
31695;DHT22;18289;51.330;4.946;2022-09-27T01:12:41;10.30;99.90
31695;DHT22;18289;51.330;4.946;2022-09-27T01:18:07;10.10;99.90
31695;DHT22;18289;51.330;4.946;2022-09-27T01:21:02;10.20;99.90
31695;DHT22;18289;51.330;4.946;2022-09-27T01:28:57;10.10;99.90
31695;DHT22;18289;51.330;4.946;2022-09-27T01:34:44;10.10;99.90
31695;DHT22;18289;51.330;4.946;2022-09-27T01:42:46;10.00;99.90
31695;DHT22;18289;51.330;4.946;2022-09-27T01:45:25;10.10;99.90
31695;DHT22;18289;51.330;4.946;2022-09-27T01:48:01;10.00;99.90
31695;DHT22;18289;51.330;4.946;2022-09-27T01:50:34;10.00;99.90
31695;DHT22;18289;51.330;4.946;2022-09-27T01:53:11;10.00;99.90
31695;DHT22;18289;51.330;4.946;2022-09-27T01:55:39;10.00;99.90
31695;DHT22;18289;51.330;4.946;2022-09-27T01:58:40;10.00;99.90
31695;DHT22;18289;51.330;4.946;2022-09-27T02:01:08;10.00;99.90
31695;DHT22;18289;51.330;4.946;2022-09-27T02:03:38;9.90;99.90
31695;DHT22;18289;51.330;4.946;2022-09-27T02:06:13;9.90;99.90
31695;DHT22;18289;51.330;4.946;2022-09-27T02:08:58;9.90;99.90
31695;DHT22;18289;51.330;4.946;2022-09-27T02:11:26;10.00;99.90
31695;DHT22;18289;51.330;4.946;2022-09-27T02:14:01;10.10;99.90
31695;DHT22;18289;51.330;4.946;2022-09-27T02:24:59;10.00;99.90
31695;DHT22;18289;51.330;4.946;2022-09-27T02:30:11;9.90;99.90
31695;DHT22;18289;51.330;4.946;2022-09-27T02:32:37;9.80;99.90
31695;DHT22;18289;51.330;4.946;2022-09-27T02:35:30;9.80;99.90
31695;DHT22;18289;51.330;4.946;2022-09-27T02:37:54;9.90;99.90
31695;DHT22;18289;51.330;4.946;2022-09-27T02:40:21;9.80;99.90
31695;DHT22;18289;51.330;4.946;2022-09-27T02:42:47;9.90;99.90
31695;DHT22;18289;51.330;4.946;2022-09-27T02:45:15;9.90;99.90
31695;DHT22;18289;51.330;4.946;2022-09-27T02:55:23;9.80;99.90
31695;DHT22;18289;51.330;4.946;2022-09-27T02:58:27;9.80;99.90
31695;DHT22;18289;51.330;4.946;2022-09-27T03:06:50;9.80;99.90
31695;DHT22;18289;51.330;4.946;2022-09-27T03:09:23;9.90;99.90
31695;DHT22;18289;51.330;4.946;2022-09-27T03:11:49;9.80;99.90
31695;DHT22;18289;51.330;4.946;2022-09-27T03:14:15;9.80;99.90
31695;DHT22;18289;51.330;4.946;2022-09-27T03:16:41;9.80;99.90
31695;DHT22;18289;51.330;4.946;2022-09-27T03:19:08;9.80;99.90
31695;DHT22;18289;51.330;4.946;2022-09-27T03:21:34;9.80;99.90
31695;DHT22;18289;51.330;4.946;2022-09-27T03:24:00;9.80;99.90
31695;DHT22;18289;51.330;4.946;2022-09-27T03:26:26;9.80;99.90
31695;DHT22;18289;51.330;4.946;2022-09-27T03:28:52;9.80;99.90
31695;DHT22;18289;51.330;4.946;2022-09-27T03:31:18;9.70;99.90
31695;DHT22;18289;51.330;4.946;2022-09-27T03:33:43;9.70;99.90
31695;DHT22;18289;51.330;4.946;2022-09-27T03:36:09;9.70;99.90
31695;DHT22;18289;51.330;4.946;2022-09-27T03:38:36;9.60;99.90
31695;DHT22;18289;51.330;4.946;2022-09-27T03:41:03;9.70;99.90
31695;DHT22;18289;51.330;4.946;2022-09-27T03:43:29;9.70;99.90
31695;DHT22;18289;51.330;4.946;2022-09-27T03:45:55;9.70;99.90
31695;DHT22;18289;51.330;4.946;2022-09-27T03:48:20;9.70;99.90
31695;DHT22;18289;51.330;4.946;2022-09-27T03:50:46;9.60;99.90
31695;DHT22;18289;51.330;4.946;2022-09-27T03:53:12;9.70;99.90
31695;DHT22;18289;51.330;4.946;2022-09-27T03:55:37;9.60;99.90
31695;DHT22;18289;51.330;4.946;2022-09-27T03:58:03;9.70;99.90
31695;DHT22;18289;51.330;4.946;2022-09-27T04:00:29;9.50;99.90
31695;DHT22;18289;51.330;4.946;2022-09-27T04:02:57;9.50;99.90
31695;DHT22;18289;51.330;4.946;2022-09-27T04:05:25;9.50;99.90
31695;DHT22;18289;51.330;4.946;2022-09-27T04:07:51;9.40;99.90
31695;DHT22;18289;51.330;4.946;2022-09-27T04:10:17;9.40;99.90
31695;DHT22;18289;51.330;4.946;2022-09-27T04:12:43;9.40;99.90
31695;DHT22;18289;51.330;4.946;2022-09-27T04:15:09;9.40;99.90
31695;DHT22;18289;51.330;4.946;2022-09-27T04:17:35;9.40;99.90
31695;DHT22;18289;51.330;4.946;2022-09-27T04:20:01;9.40;99.90
31695;DHT22;18289;51.330;4.946;2022-09-27T04:22:28;9.40;99.90
31695;DHT22;18289;51.330;4.946;2022-09-27T04:24:54;9.30;99.90
31695;DHT22;18289;51.330;4.946;2022-09-27T04:27:20;9.30;99.90
31695;DHT22;18289;51.330;4.946;2022-09-27T04:29:48;9.30;99.90
31695;DHT22;18289;51.330;4.946;2022-09-27T04:32:14;9.40;99.90
31695;DHT22;18289;51.330;4.946;2022-09-27T04:34:39;9.50;99.90
31695;DHT22;18289;51.330;4.946;2022-09-27T04:37:24;9.50;99.90
31695;DHT22;18289;51.330;4.946;2022-09-27T04:39:50;9.60;99.90
31695;DHT22;18289;51.330;4.946;2022-09-27T04:42:16;9.70;99.90
31695;DHT22;18289;51.330;4.946;2022-09-27T04:44:42;9.60;99.90
31695;DHT22;18289;51.330;4.946;2022-09-27T04:47:08;9.50;99.90
31695;DHT22;18289;51.330;4.946;2022-09-27T04:49:33;9.60;99.90
31695;DHT22;18289;51.330;4.946;2022-09-27T04:51:59;9.60;99.90
31695;DHT22;18289;51.330;4.946;2022-09-27T04:54:25;9.60;99.90
31695;DHT22;18289;51.330;4.946;2022-09-27T04:56:51;9.50;99.90
31695;DHT22;18289;51.330;4.946;2022-09-27T04:59:17;9.40;99.90
31695;DHT22;18289;51.330;4.946;2022-09-27T05:01:42;9.50;99.90
31695;DHT22;18289;51.330;4.946;2022-09-27T05:04:09;9.40;99.90
31695;DHT22;18289;51.330;4.946;2022-09-27T05:06:35;9.40;99.90
31695;DHT22;18289;51.330;4.946;2022-09-27T05:09:01;9.40;99.90
31695;DHT22;18289;51.330;4.946;2022-09-27T05:11:26;9.40;99.90
31695;DHT22;18289;51.330;4.946;2022-09-27T05:13:52;9.40;99.90
31695;DHT22;18289;51.330;4.946;2022-09-27T05:16:18;9.40;99.90
31695;DHT22;18289;51.330;4.946;2022-09-27T05:18:44;9.40;99.90
31695;DHT22;18289;51.330;4.946;2022-09-27T05:21:10;9.40;99.90
31695;DHT22;18289;51.330;4.946;2022-09-27T05:23:36;9.30;99.90
31695;DHT22;18289;51.330;4.946;2022-09-27T05:26:05;9.30;99.90
31695;DHT22;18289;51.330;4.946;2022-09-27T05:28:31;9.20;99.90
31695;DHT22;18289;51.330;4.946;2022-09-27T05:31:00;9.20;99.90
31695;DHT22;18289;51.330;4.946;2022-09-27T05:33:26;9.20;99.90
31695;DHT22;18289;51.330;4.946;2022-09-27T05:35:56;9.20;99.90
31695;DHT22;18289;51.330;4.946;2022-09-27T05:38:22;9.20;99.90
31695;DHT22;18289;51.330;4.946;2022-09-27T05:40:48;9.30;99.90
31695;DHT22;18289;51.330;4.946;2022-09-27T05:43:16;9.30;99.90
31695;DHT22;18289;51.330;4.946;2022-09-27T05:45:42;9.20;99.90
31695;DHT22;18289;51.330;4.946;2022-09-27T05:48:09;9.30;99.90
31695;DHT22;18289;51.330;4.946;2022-09-27T05:50:36;9.30;99.90
31695;DHT22;18289;51.330;4.946;2022-09-27T05:53:03;9.30;99.90
31695;DHT22;18289;51.330;4.946;2022-09-27T05:55:29;9.30;99.90
31695;DHT22;18289;51.330;4.946;2022-09-27T05:57:57;9.20;99.90
31695;DHT22;18289;51.330;4.946;2022-09-27T06:00:23;9.20;99.90
31695;DHT22;18289;51.330;4.946;2022-09-27T06:02:57;9.20;99.90
31695;DHT22;18289;51.330;4.946;2022-09-27T06:05:25;9.20;99.90
31695;DHT22;18289;51.330;4.946;2022-09-27T06:07:52;9.30;99.90
31695;DHT22;18289;51.330;4.946;2022-09-27T06:10:22;9.30;99.90
31695;DHT22;18289;51.330;4.946;2022-09-27T06:12:47;9.20;99.90
31695;DHT22;18289;51.330;4.946;2022-09-27T06:15:14;9.20;99.90
31695;DHT22;18289;51.330;4.946;2022-09-27T06:17:40;9.20;99.90
31695;DHT22;18289;51.330;4.946;2022-09-27T06:20:07;9.30;99.90
31695;DHT22;18289;51.330;4.946;2022-09-27T06:22:34;9.20;99.90
31695;DHT22;18289;51.330;4.946;2022-09-27T06:25:01;9.30;99.90
31695;DHT22;18289;51.330;4.946;2022-09-27T06:27:31;9.40;99.90
31695;DHT22;18289;51.330;4.946;2022-09-27T06:29:57;9.40;99.90
31695;DHT22;18289;51.330;4.946;2022-09-27T06:32:23;9.30;99.90
31695;DHT22;18289;51.330;4.946;2022-09-27T06:34:48;9.40;99.90
31695;DHT22;18289;51.330;4.946;2022-09-27T06:37:14;9.40;99.90
31695;DHT22;18289;51.330;4.946;2022-09-27T06:39:40;9.50;99.90
31695;DHT22;18289;51.330;4.946;2022-09-27T06:42:06;9.50;99.90
31695;DHT22;18289;51.330;4.946;2022-09-27T06:44:32;9.40;99.90
31695;DHT22;18289;51.330;4.946;2022-09-27T06:46:59;9.50;99.90
31695;DHT22;18289;51.330;4.946;2022-09-27T06:49:24;9.60;99.90
31695;DHT22;18289;51.330;4.946;2022-09-27T06:51:50;9.70;99.90
31695;DHT22;18289;51.330;4.946;2022-09-27T06:54:17;9.70;99.90
31695;DHT22;18289;51.330;4.946;2022-09-27T06:56:45;9.70;99.90
31695;DHT22;18289;51.330;4.946;2022-09-27T06:59:11;9.70;99.90
31695;DHT22;18289;51.330;4.946;2022-09-27T07:01:55;9.70;99.90
31695;DHT22;18289;51.330;4.946;2022-09-27T07:04:21;9.70;99.90
31695;DHT22;18289;51.330;4.946;2022-09-27T07:06:46;9.70;99.90
31695;DHT22;18289;51.330;4.946;2022-09-27T07:09:12;9.60;99.90
31695;DHT22;18289;51.330;4.946;2022-09-27T07:11:39;9.60;99.90
31695;DHT22;18289;51.330;4.946;2022-09-27T07:14:04;9.70;99.90
31695;DHT22;18289;51.330;4.946;2022-09-27T07:16:32;9.80;99.90
31695;DHT22;18289;51.330;4.946;2022-09-27T07:18:59;9.90;99.90
31695;DHT22;18289;51.330;4.946;2022-09-27T07:21:25;10.00;99.90
31695;DHT22;18289;51.330;4.946;2022-09-27T07:23:51;10.10;99.90
31695;DHT22;18289;51.330;4.946;2022-09-27T07:26:17;10.10;99.90
31695;DHT22;18289;51.330;4.946;2022-09-27T07:28:43;10.10;99.90
31695;DHT22;18289;51.330;4.946;2022-09-27T07:31:10;10.20;99.90
31695;DHT22;18289;51.330;4.946;2022-09-27T07:33:37;10.20;99.90
31695;DHT22;18289;51.330;4.946;2022-09-27T07:36:07;10.20;99.90
31695;DHT22;18289;51.330;4.946;2022-09-27T07:38:33;10.30;99.90
31695;DHT22;18289;51.330;4.946;2022-09-27T07:41:07;10.30;99.90
31695;DHT22;18289;51.330;4.946;2022-09-27T07:43:33;10.30;99.90
31695;DHT22;18289;51.330;4.946;2022-09-27T07:45:59;10.40;99.90
31695;DHT22;18289;51.330;4.946;2022-09-27T07:48:25;10.40;99.90
31695;DHT22;18289;51.330;4.946;2022-09-27T07:50:52;10.30;99.90
31695;DHT22;18289;51.330;4.946;2022-09-27T07:53:17;10.30;99.90
31695;DHT22;18289;51.330;4.946;2022-09-27T07:55:48;10.30;99.90
31695;DHT22;18289;51.330;4.946;2022-09-27T07:58:14;10.50;99.90
31695;DHT22;18289;51.330;4.946;2022-09-27T08:00:39;10.50;99.90
31695;DHT22;18289;51.330;4.946;2022-09-27T08:03:09;10.50;99.90
31695;DHT22;18289;51.330;4.946;2022-09-27T08:05:35;10.50;99.90
31695;DHT22;18289;51.330;4.946;2022-09-27T08:08:02;10.50;99.90
31695;DHT22;18289;51.330;4.946;2022-09-27T08:10:29;10.50;99.90
31695;DHT22;18289;51.330;4.946;2022-09-27T08:13:02;10.60;99.90
31695;DHT22;18289;51.330;4.946;2022-09-27T08:15:30;10.60;99.90
31695;DHT22;18289;51.330;4.946;2022-09-27T08:17:56;10.60;99.90
31695;DHT22;18289;51.330;4.946;2022-09-27T08:20:22;10.60;99.90
31695;DHT22;18289;51.330;4.946;2022-09-27T08:22:47;10.60;99.90
31695;DHT22;18289;51.330;4.946;2022-09-27T08:25:13;10.50;99.90
31695;DHT22;18289;51.330;4.946;2022-09-27T08:27:39;10.60;99.90
31695;DHT22;18289;51.330;4.946;2022-09-27T08:30:05;10.70;99.90
31695;DHT22;18289;51.330;4.946;2022-09-27T08:32:31;10.80;99.90
31695;DHT22;18289;51.330;4.946;2022-09-27T08:34:57;10.80;99.90
31695;DHT22;18289;51.330;4.946;2022-09-27T08:37:24;10.80;99.90
31695;DHT22;18289;51.330;4.946;2022-09-27T08:39:50;10.90;99.90
31695;DHT22;18289;51.330;4.946;2022-09-27T08:45:12;11.10;99.90
31695;DHT22;18289;51.330;4.946;2022-09-27T08:47:53;11.10;99.90
31695;DHT22;18289;51.330;4.946;2022-09-27T08:50:27;11.10;99.90
31695;DHT22;18289;51.330;4.946;2022-09-27T08:53:21;11.10;99.90
31695;DHT22;18289;51.330;4.946;2022-09-27T08:55:50;11.10;99.90
31695;DHT22;18289;51.330;4.946;2022-09-27T09:00:51;11.20;99.90
31695;DHT22;18289;51.330;4.946;2022-09-27T09:03:24;11.30;99.90
31695;DHT22;18289;51.330;4.946;2022-09-27T09:20:57;11.30;99.90
31695;DHT22;18289;51.330;4.946;2022-09-27T09:29:26;11.50;99.90
31695;DHT22;18289;51.330;4.946;2022-09-27T09:34:24;11.40;99.90
31695;DHT22;18289;51.330;4.946;2022-09-27T09:42:15;11.50;99.90
31695;DHT22;18289;51.330;4.946;2022-09-27T09:44:58;11.40;99.90
31695;DHT22;18289;51.330;4.946;2022-09-27T09:50:26;11.50;99.90
31695;DHT22;18289;51.330;4.946;2022-09-27T09:53:14;11.70;99.90
31695;DHT22;18289;51.330;4.946;2022-09-27T09:55:42;11.60;99.90
31695;DHT22;18289;51.330;4.946;2022-09-27T09:58:35;11.60;99.90
31695;DHT22;18289;51.330;4.946;2022-09-27T10:03:44;11.60;99.90
31695;DHT22;18289;51.330;4.946;2022-09-27T10:06:11;11.30;99.90
31695;DHT22;18289;51.330;4.946;2022-09-27T10:08:38;11.10;99.90
31695;DHT22;18289;51.330;4.946;2022-09-27T10:11:05;11.10;99.90
31695;DHT22;18289;51.330;4.946;2022-09-27T10:13:33;11.00;99.90
31695;DHT22;18289;51.330;4.946;2022-09-27T10:16:11;10.80;99.90
31695;DHT22;18289;51.330;4.946;2022-09-27T10:18:39;10.70;99.90
31695;DHT22;18289;51.330;4.946;2022-09-27T10:21:24;10.50;99.90
31695;DHT22;18289;51.330;4.946;2022-09-27T10:24:11;10.50;99.90
31695;DHT22;18289;51.330;4.946;2022-09-27T10:26:39;10.30;99.90
31695;DHT22;18289;51.330;4.946;2022-09-27T10:31:39;10.50;99.90
31695;DHT22;18289;51.330;4.946;2022-09-27T10:34:19;10.40;99.90
31695;DHT22;18289;51.330;4.946;2022-09-27T10:36:45;10.60;99.90
31695;DHT22;18289;51.330;4.946;2022-09-27T10:39:21;10.70;99.90
31695;DHT22;18289;51.330;4.946;2022-09-27T10:41:48;10.90;99.90
31695;DHT22;18289;51.330;4.946;2022-09-27T10:46:40;11.10;99.90
31695;DHT22;18289;51.330;4.946;2022-09-27T10:49:08;11.20;99.90
31695;DHT22;18289;51.330;4.946;2022-09-27T10:51:35;11.10;99.90
31695;DHT22;18289;51.330;4.946;2022-09-27T10:54:01;11.40;99.90
31695;DHT22;18289;51.330;4.946;2022-09-27T10:56:30;11.40;99.90
31695;DHT22;18289;51.330;4.946;2022-09-27T10:58:57;11.40;99.90
31695;DHT22;18289;51.330;4.946;2022-09-27T11:01:41;11.50;99.90
31695;DHT22;18289;51.330;4.946;2022-09-27T11:04:25;11.70;99.90
31695;DHT22;18289;51.330;4.946;2022-09-27T11:07:15;12.00;99.90
31695;DHT22;18289;51.330;4.946;2022-09-27T11:09:56;12.10;99.90
31695;DHT22;18289;51.330;4.946;2022-09-27T11:12:28;12.40;99.90
31695;DHT22;18289;51.330;4.946;2022-09-27T11:14:58;12.80;99.90
31695;DHT22;18289;51.330;4.946;2022-09-27T11:17:55;13.20;99.90
31695;DHT22;18289;51.330;4.946;2022-09-27T11:37:25;14.80;99.90
31695;DHT22;18289;51.330;4.946;2022-09-27T11:40:18;15.60;99.90
31695;DHT22;18289;51.330;4.946;2022-09-27T11:48:41;19.50;99.90
31695;DHT22;18289;51.330;4.946;2022-09-27T11:53:58;19.80;99.90
31695;DHT22;18289;51.330;4.946;2022-09-27T12:02:00;19.40;99.90
31695;DHT22;18289;51.330;4.946;2022-09-27T12:07:18;20.30;99.90
31695;DHT22;18289;51.330;4.946;2022-09-27T12:09:50;19.60;99.90
31695;DHT22;18289;51.330;4.946;2022-09-27T12:12:27;18.30;99.90
31695;DHT22;18289;51.330;4.946;2022-09-27T12:15:05;17.70;99.90
31695;DHT22;18289;51.330;4.946;2022-09-27T12:17:39;16.80;99.90
31695;DHT22;18289;51.330;4.946;2022-09-27T12:20:24;16.30;99.90
31695;DHT22;18289;51.330;4.946;2022-09-27T12:22:53;15.80;99.90
31695;DHT22;18289;51.330;4.946;2022-09-27T12:25:19;15.20;99.90
31695;DHT22;18289;51.330;4.946;2022-09-27T12:30:53;14.40;99.90
31695;DHT22;18289;51.330;4.946;2022-09-27T12:33:38;13.90;99.90
31695;DHT22;18289;51.330;4.946;2022-09-27T12:36:10;13.50;99.90
31695;DHT22;18289;51.330;4.946;2022-09-27T12:38:47;12.80;99.90
31695;DHT22;18289;51.330;4.946;2022-09-27T12:41:18;12.40;99.90
31695;DHT22;18289;51.330;4.946;2022-09-27T12:43:47;11.80;99.90
31695;DHT22;18289;51.330;4.946;2022-09-27T12:52:02;11.30;99.90
31695;DHT22;18289;51.330;4.946;2022-09-27T13:00:19;11.50;99.90
31695;DHT22;18289;51.330;4.946;2022-09-27T13:03:25;11.80;99.90
31695;DHT22;18289;51.330;4.946;2022-09-27T13:11:24;13.30;99.90
31695;DHT22;18289;51.330;4.946;2022-09-27T13:13:58;14.60;99.90
31695;DHT22;18289;51.330;4.946;2022-09-27T13:16:26;16.40;99.90
31695;DHT22;18289;51.330;4.946;2022-09-27T13:18:56;17.10;99.90
31695;DHT22;18289;51.330;4.946;2022-09-27T13:30:03;17.50;99.90
31695;DHT22;18289;51.330;4.946;2022-09-27T13:32:38;17.10;99.90
31695;DHT22;18289;51.330;4.946;2022-09-27T13:37:56;16.40;99.90
31695;DHT22;18289;51.330;4.946;2022-09-27T13:40:34;16.10;99.90
31695;DHT22;18289;51.330;4.946;2022-09-27T13:45:37;15.20;99.90
31695;DHT22;18289;51.330;4.946;2022-09-27T13:51:33;14.50;99.90
31695;DHT22;18289;51.330;4.946;2022-09-27T13:54:05;14.40;99.90
31695;DHT22;18289;51.330;4.946;2022-09-27T13:59:20;14.00;99.90
31695;DHT22;18289;51.330;4.946;2022-09-27T14:02:18;13.60;99.90
31695;DHT22;18289;51.330;4.946;2022-09-27T14:04:48;13.20;99.90
31695;DHT22;18289;51.330;4.946;2022-09-27T14:07:59;12.80;99.90
31695;DHT22;18289;51.330;4.946;2022-09-27T14:10:10;12.70;99.90
31695;DHT22;18289;51.330;4.946;2022-09-27T14:12:39;12.70;99.90
31695;DHT22;18289;51.330;4.946;2022-09-27T14:15:08;12.70;99.90
31695;DHT22;18289;51.330;4.946;2022-09-27T14:17:41;12.70;99.90
31695;DHT22;18289;51.330;4.946;2022-09-27T14:20:30;12.50;99.90
31695;DHT22;18289;51.330;4.946;2022-09-27T14:22:59;12.40;99.90
31695;DHT22;18289;51.330;4.946;2022-09-27T14:25:25;12.60;99.90
31695;DHT22;18289;51.330;4.946;2022-09-27T14:27:51;12.60;99.90
31695;DHT22;18289;51.330;4.946;2022-09-27T14:30:22;12.60;99.90
31695;DHT22;18289;51.330;4.946;2022-09-27T14:32:53;12.70;99.90
31695;DHT22;18289;51.330;4.946;2022-09-27T14:35:22;12.60;99.90
31695;DHT22;18289;51.330;4.946;2022-09-27T14:38:10;12.50;99.90
31695;DHT22;18289;51.330;4.946;2022-09-27T14:40:40;12.40;99.90
31695;DHT22;18289;51.330;4.946;2022-09-27T14:43:19;12.20;99.90
31695;DHT22;18289;51.330;4.946;2022-09-27T14:45:47;11.90;99.90
31695;DHT22;18289;51.330;4.946;2022-09-27T14:48:37;11.70;99.90
31695;DHT22;18289;51.330;4.946;2022-09-27T14:51:17;11.50;99.90
31695;DHT22;18289;51.330;4.946;2022-09-27T14:56:15;11.00;99.90
31695;DHT22;18289;51.330;4.946;2022-09-27T14:58:43;11.00;99.90
31695;DHT22;18289;51.330;4.946;2022-09-27T15:01:16;10.90;99.90
31695;DHT22;18289;51.330;4.946;2022-09-27T15:03:43;10.90;99.90
31695;DHT22;18289;51.330;4.946;2022-09-27T15:06:09;10.80;99.90
31695;DHT22;18289;51.330;4.946;2022-09-27T15:08:37;10.80;99.90
31695;DHT22;18289;51.330;4.946;2022-09-27T15:11:04;11.00;99.90
31695;DHT22;18289;51.330;4.946;2022-09-27T15:13:32;11.10;99.90
31695;DHT22;18289;51.330;4.946;2022-09-27T15:15:59;11.20;99.90
31695;DHT22;18289;51.330;4.946;2022-09-27T15:21:11;11.30;99.90
31695;DHT22;18289;51.330;4.946;2022-09-27T15:23:42;11.30;99.90
31695;DHT22;18289;51.330;4.946;2022-09-27T15:26:18;11.30;99.90
31695;DHT22;18289;51.330;4.946;2022-09-27T15:28:48;11.40;99.90
31695;DHT22;18289;51.330;4.946;2022-09-27T15:31:15;11.50;99.90
31695;DHT22;18289;51.330;4.946;2022-09-27T15:33:41;11.50;99.90
31695;DHT22;18289;51.330;4.946;2022-09-27T15:36:15;11.60;99.90
31695;DHT22;18289;51.330;4.946;2022-09-27T15:38:45;11.40;99.90
31695;DHT22;18289;51.330;4.946;2022-09-27T15:41:15;11.50;99.90
31695;DHT22;18289;51.330;4.946;2022-09-27T15:43:51;11.60;99.90
31695;DHT22;18289;51.330;4.946;2022-09-27T15:46:37;11.70;99.90
31695;DHT22;18289;51.330;4.946;2022-09-27T15:49:27;11.80;99.90
31695;DHT22;18289;51.330;4.946;2022-09-27T15:51:59;12.00;99.90
31695;DHT22;18289;51.330;4.946;2022-09-27T15:54:28;12.40;99.90
31695;DHT22;18289;51.330;4.946;2022-09-27T15:56:55;12.50;99.90
31695;DHT22;18289;51.330;4.946;2022-09-27T15:59:28;12.40;99.90
31695;DHT22;18289;51.330;4.946;2022-09-27T16:01:56;12.20;99.90
31695;DHT22;18289;51.330;4.946;2022-09-27T16:04:26;12.20;99.90
31695;DHT22;18289;51.330;4.946;2022-09-27T16:06:59;12.10;99.90
31695;DHT22;18289;51.330;4.946;2022-09-27T16:09:25;12.00;99.90
31695;DHT22;18289;51.330;4.946;2022-09-27T16:11:51;11.90;99.90
31695;DHT22;18289;51.330;4.946;2022-09-27T16:14:17;11.90;99.90
31695;DHT22;18289;51.330;4.946;2022-09-27T16:16:53;11.90;99.90
31695;DHT22;18289;51.330;4.946;2022-09-27T16:19:20;11.90;99.90
31695;DHT22;18289;51.330;4.946;2022-09-27T16:21:47;11.90;99.90
31695;DHT22;18289;51.330;4.946;2022-09-27T16:24:13;11.90;99.90
31695;DHT22;18289;51.330;4.946;2022-09-27T16:26:39;11.90;99.90
31695;DHT22;18289;51.330;4.946;2022-09-27T16:29:10;12.00;99.90
31695;DHT22;18289;51.330;4.946;2022-09-27T16:31:37;12.00;99.90
31695;DHT22;18289;51.330;4.946;2022-09-27T16:34:03;11.80;99.90
31695;DHT22;18289;51.330;4.946;2022-09-27T16:36:28;11.80;99.90
31695;DHT22;18289;51.330;4.946;2022-09-27T16:38:54;11.80;99.90
31695;DHT22;18289;51.330;4.946;2022-09-27T16:41:21;11.90;99.90
31695;DHT22;18289;51.330;4.946;2022-09-27T16:43:47;11.90;99.90
31695;DHT22;18289;51.330;4.946;2022-09-27T16:46:14;11.80;99.90
31695;DHT22;18289;51.330;4.946;2022-09-27T16:48:43;11.80;99.90
31695;DHT22;18289;51.330;4.946;2022-09-27T16:51:15;11.70;99.90
31695;DHT22;18289;51.330;4.946;2022-09-27T16:54:00;11.60;99.90
31695;DHT22;18289;51.330;4.946;2022-09-27T16:56:26;11.60;99.90
31695;DHT22;18289;51.330;4.946;2022-09-27T16:58:53;11.50;99.90
31695;DHT22;18289;51.330;4.946;2022-09-27T17:01:18;11.50;99.90
31695;DHT22;18289;51.330;4.946;2022-09-27T17:03:49;11.40;99.90
31695;DHT22;18289;51.330;4.946;2022-09-27T17:06:17;11.40;99.90
31695;DHT22;18289;51.330;4.946;2022-09-27T17:08:43;11.40;99.90
31695;DHT22;18289;51.330;4.946;2022-09-27T17:11:12;11.40;99.90
31695;DHT22;18289;51.330;4.946;2022-09-27T17:13:39;11.30;99.90
31695;DHT22;18289;51.330;4.946;2022-09-27T17:16:05;11.40;99.90
31695;DHT22;18289;51.330;4.946;2022-09-27T17:18:30;11.30;99.90
31695;DHT22;18289;51.330;4.946;2022-09-27T17:21:00;11.20;99.90
31695;DHT22;18289;51.330;4.946;2022-09-27T17:23:28;11.20;99.90
31695;DHT22;18289;51.330;4.946;2022-09-27T17:26:00;11.30;99.90
31695;DHT22;18289;51.330;4.946;2022-09-27T17:28:27;11.30;99.90
31695;DHT22;18289;51.330;4.946;2022-09-27T17:30:53;11.40;99.90
31695;DHT22;18289;51.330;4.946;2022-09-27T17:33:20;11.20;99.90
31695;DHT22;18289;51.330;4.946;2022-09-27T17:35:56;11.10;99.90
31695;DHT22;18289;51.330;4.946;2022-09-27T17:38:24;10.90;99.90
31695;DHT22;18289;51.330;4.946;2022-09-27T17:41:00;10.70;99.90
31695;DHT22;18289;51.330;4.946;2022-09-27T17:43:27;10.50;99.90
31695;DHT22;18289;51.330;4.946;2022-09-27T17:45:55;10.40;99.90
31695;DHT22;18289;51.330;4.946;2022-09-27T17:48:21;10.40;99.90
31695;DHT22;18289;51.330;4.946;2022-09-27T17:51:05;10.20;99.90
31695;DHT22;18289;51.330;4.946;2022-09-27T17:53:30;10.10;99.90
31695;DHT22;18289;51.330;4.946;2022-09-27T17:56:00;10.00;99.90
31695;DHT22;18289;51.330;4.946;2022-09-27T17:58:26;9.70;99.90
31695;DHT22;18289;51.330;4.946;2022-09-27T18:00:52;9.80;99.90
31695;DHT22;18289;51.330;4.946;2022-09-27T18:03:17;9.90;99.90
31695;DHT22;18289;51.330;4.946;2022-09-27T18:05:43;9.70;99.90
31695;DHT22;18289;51.330;4.946;2022-09-27T18:08:08;9.60;99.90
31695;DHT22;18289;51.330;4.946;2022-09-27T18:10:34;9.50;99.90
31695;DHT22;18289;51.330;4.946;2022-09-27T18:13:00;9.60;99.90
31695;DHT22;18289;51.330;4.946;2022-09-27T18:15:25;9.70;99.90
31695;DHT22;18289;51.330;4.946;2022-09-27T18:17:51;9.80;99.90
31695;DHT22;18289;51.330;4.946;2022-09-27T18:20:17;9.90;99.90
31695;DHT22;18289;51.330;4.946;2022-09-27T18:22:43;9.70;99.90
31695;DHT22;18289;51.330;4.946;2022-09-27T18:25:09;9.70;99.90
31695;DHT22;18289;51.330;4.946;2022-09-27T18:27:36;9.60;99.90
31695;DHT22;18289;51.330;4.946;2022-09-27T18:30:04;9.70;99.90
31695;DHT22;18289;51.330;4.946;2022-09-27T18:32:30;9.70;99.90
31695;DHT22;18289;51.330;4.946;2022-09-27T18:34:56;9.90;99.90
31695;DHT22;18289;51.330;4.946;2022-09-27T18:37:22;9.90;99.90
31695;DHT22;18289;51.330;4.946;2022-09-27T18:39:47;9.90;99.90
31695;DHT22;18289;51.330;4.946;2022-09-27T18:42:13;10.00;99.90
31695;DHT22;18289;51.330;4.946;2022-09-27T18:44:39;9.90;99.90
31695;DHT22;18289;51.330;4.946;2022-09-27T18:47:04;9.70;99.90